createdAt,value
2018-05-23T00:02:02.344Z,13.20
2018-05-23T00:04:29.834Z,13.10
2018-05-23T00:06:57.335Z,13.20
2018-05-23T00:09:24.802Z,13.20
2018-05-23T00:11:52.305Z,13.30
2018-05-23T00:14:19.802Z,13.30
2018-05-23T00:16:47.289Z,13.40
2018-05-23T00:19:14.779Z,13.30
2018-05-23T00:21:43.045Z,13.40
2018-05-23T00:24:10.541Z,13.30
2018-05-23T00:26:38.012Z,13.30
2018-05-23T00:29:05.505Z,13.30
2018-05-23T00:31:32.992Z,13.30
2018-05-23T00:34:00.450Z,13.30
2018-05-23T00:36:27.943Z,13.30
2018-05-23T00:38:55.424Z,13.40
2018-05-23T00:41:22.892Z,13.40
2018-05-23T00:43:50.379Z,13.40
2018-05-23T00:46:18.624Z,13.40
2018-05-23T00:48:46.120Z,13.40
2018-05-23T00:51:14.373Z,13.50
2018-05-23T00:53:41.838Z,13.40
2018-05-23T00:56:10.090Z,13.50
2018-05-23T00:58:37.573Z,13.50
2018-05-23T01:01:05.832Z,13.50
2018-05-23T01:03:33.341Z,13.50
2018-05-23T01:06:00.815Z,13.40
2018-05-23T01:08:28.323Z,13.40
2018-05-23T01:10:55.814Z,13.40
2018-05-23T01:13:23.314Z,13.30
2018-05-23T01:15:50.798Z,13.30
2018-05-23T01:18:19.028Z,13.20
2018-05-23T01:20:46.511Z,13.20
2018-05-23T01:23:13.993Z,13.20
2018-05-23T01:25:42.238Z,13.30
2018-05-23T01:28:09.736Z,13.30
2018-05-23T01:30:37.973Z,13.30
2018-05-23T01:33:05.465Z,13.30
2018-05-23T01:35:33.696Z,13.40
2018-05-23T01:38:01.173Z,13.40
2018-05-23T01:40:28.654Z,13.40
2018-05-23T01:42:56.887Z,13.40
2018-05-23T01:45:24.358Z,13.40
2018-05-23T01:47:51.810Z,13.40
2018-05-23T01:50:19.309Z,13.40
2018-05-23T01:52:46.816Z,13.30
2018-05-23T01:55:14.280Z,13.30
2018-05-23T01:57:41.773Z,13.30
2018-05-23T02:00:10.001Z,13.10
2018-05-23T02:02:37.516Z,13.10
2018-05-23T02:05:04.991Z,13.20
2018-05-23T02:07:32.452Z,13.20
2018-05-23T02:09:59.933Z,13.20
2018-05-23T02:12:27.404Z,13.00
2018-05-23T02:14:54.961Z,13.10
2018-05-23T02:17:22.517Z,13.00
2018-05-23T02:19:50.072Z,13.10
2018-05-23T02:22:17.581Z,13.00
2018-05-23T02:24:45.088Z,13.00
2018-05-23T02:27:12.648Z,13.00
2018-05-23T02:29:40.122Z,13.20
2018-05-23T02:32:07.676Z,13.10
2018-05-23T02:34:35.231Z,13.20
2018-05-23T02:37:02.724Z,13.10
2018-05-23T02:39:30.285Z,13.20
2018-05-23T02:41:58.679Z,13.10
2018-05-23T02:44:26.180Z,13.10
2018-05-23T02:46:53.690Z,13.20
2018-05-23T02:49:21.225Z,13.10
2018-05-23T02:51:48.741Z,13.10
2018-05-23T02:54:16.250Z,13.00
2018-05-23T02:56:44.541Z,14.50
2018-05-23T02:59:12.047Z,13.00
2018-05-23T03:01:39.527Z,12.90
2018-05-23T03:04:07.059Z,13.00
2018-05-23T03:06:34.722Z,13.00
2018-05-23T03:09:02.283Z,13.00
2018-05-23T03:11:29.840Z,13.00
2018-05-23T03:13:57.333Z,13.00
2018-05-23T03:16:25.572Z,12.90
2018-05-23T03:18:53.091Z,12.90
2018-05-23T03:21:20.549Z,12.90
2018-05-23T03:23:48.248Z,12.90
2018-05-23T03:26:15.805Z,12.90
2018-05-23T03:28:43.341Z,12.90
2018-05-23T03:31:10.870Z,12.90
2018-05-23T03:33:38.357Z,12.90
2018-05-23T03:36:05.834Z,12.80
2018-05-23T03:38:33.368Z,12.80
2018-05-23T03:41:00.923Z,12.80
2018-05-23T03:43:29.514Z,12.80
2018-05-23T03:45:57.033Z,12.70
2018-05-23T03:48:24.525Z,12.70
2018-05-23T03:50:52.082Z,12.70
2018-05-23T03:53:19.627Z,12.70
2018-05-23T03:55:47.198Z,12.60
2018-05-23T03:58:14.685Z,12.60
2018-05-23T04:00:53.884Z,12.60
2018-05-23T04:03:33.250Z,12.60
2018-05-23T04:06:12.645Z,12.60
2018-05-23T04:08:40.929Z,12.70
2018-05-23T04:11:09.211Z,12.70
2018-05-23T04:13:36.763Z,12.70
2018-05-23T04:16:04.353Z,12.70
2018-05-23T04:18:31.929Z,12.60
2018-05-23T04:20:59.470Z,12.60
2018-05-23T04:23:27.022Z,12.50
2018-05-23T04:25:54.592Z,12.40
2018-05-23T04:28:22.098Z,12.40
2018-05-23T04:30:49.672Z,12.50
2018-05-23T04:33:17.946Z,12.50
2018-05-23T04:35:46.223Z,12.50
2018-05-23T04:38:14.494Z,12.50
2018-05-23T04:40:42.769Z,15.10
2018-05-23T04:43:11.050Z,12.60
2018-05-23T04:45:39.362Z,12.60
2018-05-23T04:48:07.025Z,12.60
2018-05-23T04:50:34.580Z,12.70
2018-05-23T04:53:02.141Z,12.80
2018-05-23T04:55:29.701Z,12.80
2018-05-23T04:57:57.258Z,12.90
2018-05-23T05:00:24.816Z,13.00
2018-05-23T05:02:52.332Z,13.00
2018-05-23T05:05:19.828Z,13.20
2018-05-23T05:07:47.328Z,13.30
2018-05-23T05:10:14.853Z,13.30
2018-05-23T05:12:42.403Z,13.40
2018-05-23T05:15:09.920Z,13.50
2018-05-23T05:17:38.196Z,13.60
2018-05-23T05:20:05.691Z,13.60
2018-05-23T05:22:33.207Z,13.60
2018-05-23T05:25:00.794Z,13.50
2018-05-23T05:27:28.221Z,13.40
2018-05-23T05:29:55.726Z,13.50
2018-05-23T05:32:23.200Z,13.70
2018-05-23T05:34:51.308Z,13.70
2018-05-23T05:37:18.808Z,13.80
2018-05-23T05:39:46.352Z,13.90
2018-05-23T05:42:13.877Z,14.00
2018-05-23T05:44:41.384Z,14.10
2018-05-23T05:47:08.941Z,14.20
2018-05-23T05:49:36.498Z,14.40
2018-05-23T05:52:04.021Z,14.30
2018-05-23T05:54:31.514Z,14.20
2018-05-23T05:56:59.071Z,14.10
2018-05-23T05:59:27.351Z,14.20
2018-05-23T06:01:54.933Z,14.20
2018-05-23T06:04:23.180Z,14.40
2018-05-23T06:06:50.690Z,14.40
2018-05-23T06:09:18.196Z,14.40
2018-05-23T06:11:45.702Z,14.60
2018-05-23T06:14:13.236Z,14.70
2018-05-23T06:16:40.769Z,14.80
2018-05-23T06:19:09.055Z,14.90
2018-05-23T06:21:36.546Z,14.80
2018-05-23T06:24:04.028Z,14.70
2018-05-23T06:26:31.526Z,14.70
2018-05-23T06:28:59.012Z,14.50
2018-05-23T06:31:26.496Z,14.60
2018-05-23T06:33:53.992Z,14.70
2018-05-23T06:36:22.260Z,14.70
2018-05-23T06:38:49.763Z,14.70
2018-05-23T06:41:17.240Z,14.80
2018-05-23T06:43:44.724Z,14.70
2018-05-23T06:46:12.988Z,14.90
2018-05-23T06:48:40.462Z,14.90
2018-05-23T06:51:08.727Z,15.00
2018-05-23T06:53:36.199Z,15.00
2018-05-23T06:56:04.469Z,15.10
2018-05-23T06:58:32.747Z,15.10
2018-05-23T07:01:01.001Z,15.30
2018-05-23T07:03:28.486Z,15.30
2018-05-23T07:05:56.755Z,15.20
2018-05-23T07:14:05.375Z,15.40
2018-05-23T07:16:51.499Z,15.30
2018-05-23T07:19:24.160Z,15.50
2018-05-23T07:25:01.220Z,15.60
2018-05-23T07:27:32.364Z,15.70
2018-05-23T07:30:04.567Z,15.90
2018-05-23T07:32:37.987Z,15.90
2018-05-23T07:47:18.167Z,16.60
2018-05-23T07:49:47.337Z,16.80
2018-05-23T07:52:14.922Z,17.00
2018-05-23T07:54:42.394Z,17.10
2018-05-23T07:57:09.907Z,17.10
2018-05-23T07:59:39.135Z,17.30
2018-05-23T08:02:09.617Z,17.40
2018-05-23T08:04:37.901Z,17.80
2018-05-23T08:07:05.397Z,17.80
2018-05-23T08:09:32.903Z,17.90
2018-05-23T08:12:00.416Z,17.70
2018-05-23T08:14:27.900Z,17.80
2018-05-23T08:16:55.384Z,17.90
2018-05-23T08:19:22.880Z,17.80
2018-05-23T08:21:50.397Z,17.90
2018-05-23T08:24:17.934Z,17.80
2018-05-23T08:26:45.386Z,17.70
2018-05-23T08:29:12.892Z,17.70
2018-05-23T08:31:41.180Z,17.40
2018-05-23T08:34:08.715Z,17.40
2018-05-23T08:36:37.082Z,17.40
2018-05-23T08:39:05.375Z,17.20
2018-05-23T08:41:33.655Z,16.80
2018-05-23T08:44:01.905Z,16.60
2018-05-23T08:46:29.398Z,16.60
2018-05-23T08:48:57.675Z,16.50
2018-05-23T08:51:25.940Z,16.30
2018-05-23T08:53:54.194Z,16.30
2018-05-23T08:56:21.714Z,16.30
2018-05-23T08:58:49.201Z,16.30
2018-05-23T09:01:16.723Z,16.30
2018-05-23T09:03:44.226Z,16.30
2018-05-23T09:06:11.735Z,16.30
2018-05-23T09:08:39.214Z,16.40
2018-05-23T09:11:06.719Z,16.50
2018-05-23T09:13:34.986Z,16.70
2018-05-23T09:16:03.238Z,16.80
2018-05-23T09:18:30.709Z,16.80
2018-05-23T09:20:58.212Z,16.90
2018-05-23T09:23:25.680Z,17.20
2018-05-23T09:25:53.170Z,17.40
2018-05-23T09:28:20.673Z,17.60
2018-05-23T09:30:48.186Z,17.80
2018-05-23T09:33:15.679Z,17.80
2018-05-23T09:35:43.937Z,18.40
2018-05-23T09:38:11.412Z,18.30
2018-05-23T09:40:38.914Z,18.50
2018-05-23T09:43:06.405Z,19.00
2018-05-23T09:45:33.873Z,19.10
2018-05-23T09:48:02.141Z,19.10
2018-05-23T09:50:29.619Z,19.00
2018-05-23T09:52:57.121Z,18.90
2018-05-23T09:55:24.605Z,19.10
2018-05-23T09:57:52.082Z,19.20
2018-05-23T10:00:25.169Z,19.00
2018-05-23T10:02:53.426Z,19.10
2018-05-23T10:05:20.895Z,19.10
2018-05-23T10:07:48.404Z,19.30
2018-05-23T10:10:15.940Z,19.20
2018-05-23T10:12:44.185Z,19.00
2018-05-23T10:15:11.657Z,19.00
2018-05-23T10:17:40.289Z,19.20
2018-05-23T10:20:07.773Z,19.20
2018-05-23T10:22:35.283Z,19.40
2018-05-23T10:25:02.824Z,19.50
2018-05-23T10:27:30.397Z,19.50
2018-05-23T10:29:57.881Z,19.60
2018-05-23T10:32:25.383Z,19.70
2018-05-23T10:34:52.852Z,19.60
2018-05-23T10:37:20.323Z,19.40
2018-05-23T10:39:47.810Z,19.30
2018-05-23T10:42:15.330Z,19.40
2018-05-23T10:44:44.291Z,19.90
2018-05-23T10:47:11.779Z,19.90
2018-05-23T10:49:40.008Z,19.70
2018-05-23T10:52:07.500Z,19.70
2018-05-23T10:54:34.966Z,19.60
2018-05-23T10:57:02.520Z,19.50
2018-05-23T10:59:29.994Z,19.00
2018-05-23T11:01:58.268Z,18.90
2018-05-23T11:04:26.495Z,18.90
2018-05-23T11:06:53.997Z,18.90
2018-05-23T11:09:22.282Z,19.20
2018-05-23T11:11:49.791Z,19.20
2018-05-23T11:14:17.278Z,19.10
2018-05-23T11:16:44.746Z,18.90
2018-05-23T11:19:12.396Z,19.10
2018-05-23T11:21:40.961Z,19.80
2018-05-23T11:24:08.375Z,19.70
2018-05-23T11:26:36.226Z,19.70
2018-05-23T11:29:03.698Z,19.80
2018-05-23T11:31:31.198Z,20.30
2018-05-23T11:33:58.722Z,20.60
2018-05-23T11:36:26.668Z,20.90
2018-05-23T11:38:54.171Z,21.30
2018-05-23T11:41:21.677Z,21.50
2018-05-23T11:43:49.184Z,21.30
2018-05-23T11:46:16.670Z,21.20
2018-05-23T11:48:44.934Z,21.10
2018-05-23T11:51:12.434Z,21.10
2018-05-23T11:53:39.921Z,20.90
2018-05-23T11:56:07.402Z,21.10
2018-05-23T11:58:34.934Z,21.70
2018-05-23T12:01:02.414Z,21.60
2018-05-23T12:03:29.908Z,21.40
2018-05-23T12:05:58.152Z,21.90
2018-05-23T12:08:25.620Z,21.90
2018-05-23T12:10:53.131Z,22.40
2018-05-23T12:13:20.599Z,22.60
2018-05-23T12:15:48.089Z,23.20
2018-05-23T12:18:15.564Z,23.10
2018-05-23T12:20:43.242Z,23.40
2018-05-23T12:23:10.729Z,23.00
2018-05-23T12:25:38.213Z,22.60
2018-05-23T12:28:05.738Z,22.00
2018-05-23T12:30:33.200Z,21.80
2018-05-23T12:33:00.711Z,21.80
2018-05-23T12:35:28.189Z,21.80
2018-05-23T12:37:56.421Z,21.40
2018-05-23T12:40:23.934Z,21.50
2018-05-23T12:42:52.078Z,21.00
2018-05-23T12:45:19.549Z,20.70
2018-05-23T12:47:47.039Z,20.70
2018-05-23T12:50:14.507Z,21.00
2018-05-23T12:52:42.004Z,21.30
2018-05-23T12:55:09.773Z,21.60
2018-05-23T12:57:37.227Z,22.50
2018-05-23T13:00:04.737Z,22.30
2018-05-23T13:02:32.205Z,22.00
2018-05-23T13:04:59.688Z,22.00
2018-05-23T13:07:27.149Z,22.10
2018-05-23T13:09:54.640Z,22.30
2018-05-23T13:12:22.178Z,22.40
2018-05-23T13:14:49.692Z,22.20
2018-05-23T13:17:17.236Z,22.50
2018-05-23T13:19:45.726Z,22.70
2018-05-23T13:22:13.192Z,22.80
2018-05-23T13:24:40.692Z,22.60
2018-05-23T13:27:08.911Z,21.80
2018-05-23T13:29:36.411Z,21.80
2018-05-23T13:32:03.905Z,21.70
2018-05-23T13:34:31.389Z,21.80
2018-05-23T13:36:58.864Z,21.90
2018-05-23T13:39:26.385Z,21.80
2018-05-23T13:41:53.863Z,21.50
2018-05-23T13:44:22.262Z,21.40
2018-05-23T13:46:49.744Z,21.40
2018-05-23T13:52:13.327Z,21.60
2018-05-23T13:54:44.382Z,21.60
2018-05-23T13:57:15.738Z,21.50
2018-05-23T13:59:46.496Z,21.80
2018-05-23T14:02:16.430Z,22.30
2018-05-23T14:07:37.284Z,24.10
2018-05-23T14:10:04.850Z,25.50
2018-05-23T14:12:34.238Z,26.40
2018-05-23T14:15:01.854Z,25.90
2018-05-23T14:17:31.213Z,26.40
2018-05-23T14:20:07.561Z,27.20
2018-05-23T14:22:35.502Z,27.80
2018-05-23T14:25:09.271Z,27.60
2018-05-23T14:27:38.576Z,26.50
2018-05-23T14:30:08.829Z,27.30
2018-05-23T14:32:49.980Z,28.00
2018-05-23T14:35:31.185Z,28.30
2018-05-23T14:37:58.784Z,27.90
2018-05-23T14:40:35.925Z,27.60
2018-05-23T14:43:15.131Z,27.90
2018-05-23T14:45:43.508Z,28.00
2018-05-23T14:48:13.861Z,28.60
2018-05-23T14:50:45.297Z,28.90
2018-05-23T14:53:14.769Z,29.00
2018-05-23T14:55:43.892Z,28.50
2018-05-23T14:58:11.375Z,28.60
2018-05-23T15:00:38.942Z,28.50
2018-05-23T15:03:07.255Z,27.70
2018-05-23T15:05:37.269Z,27.00
2018-05-23T15:08:04.782Z,25.60
2018-05-23T15:10:38.650Z,25.50
2018-05-23T15:13:11.743Z,25.70
2018-05-23T15:15:43.934Z,25.60
2018-05-23T15:18:12.311Z,24.90
2018-05-23T15:20:42.176Z,24.00
2018-05-23T15:23:12.136Z,23.40
2018-05-23T15:25:42.201Z,22.80
2018-05-23T15:28:09.772Z,22.20
2018-05-23T15:30:37.282Z,21.40
2018-05-23T15:33:04.787Z,20.90
2018-05-23T15:35:32.349Z,20.70
2018-05-23T15:38:00.772Z,20.60
2018-05-23T15:40:28.440Z,20.50
2018-05-23T15:42:57.133Z,20.20
2018-05-23T15:45:29.928Z,20.20
2018-05-23T15:47:57.435Z,20.20
2018-05-23T15:50:25.805Z,20.20
2018-05-23T15:52:56.980Z,20.20
2018-05-23T15:55:26.223Z,20.10
2018-05-23T15:57:53.838Z,20.00
2018-05-23T16:00:22.442Z,19.80
2018-05-23T16:02:50.301Z,19.60
2018-05-23T16:05:17.816Z,19.30
2018-05-23T16:07:45.376Z,18.90
2018-05-23T16:10:13.660Z,18.00
2018-05-23T16:12:41.964Z,17.00
2018-05-23T16:15:09.463Z,16.90
2018-05-23T16:17:37.482Z,15.50
2018-05-23T16:20:05.664Z,14.60
2018-05-23T16:22:33.166Z,14.40
2018-05-23T16:25:00.656Z,14.40
2018-05-23T16:27:29.525Z,14.50
2018-05-23T16:29:57.009Z,14.40
2018-05-23T16:32:26.026Z,14.50
2018-05-23T16:34:53.746Z,14.50
2018-05-23T16:37:22.942Z,14.70
2018-05-23T16:39:51.219Z,14.60
2018-05-23T16:42:18.729Z,14.60
2018-05-23T16:44:46.258Z,14.80
2018-05-23T16:47:15.112Z,15.00
2018-05-23T16:49:42.609Z,15.00
2018-05-23T16:52:10.094Z,15.10
2018-05-23T16:54:38.824Z,15.30
2018-05-23T16:57:06.413Z,15.30
2018-05-23T16:59:33.914Z,15.40
2018-05-23T17:02:01.471Z,15.50
2018-05-23T17:04:28.957Z,15.50
2018-05-23T17:06:58.412Z,15.50
2018-05-23T17:09:25.941Z,15.50
2018-05-23T17:11:53.428Z,15.60
2018-05-23T17:14:21.776Z,15.70
2018-05-23T17:16:50.811Z,15.60
2018-05-23T17:19:23.715Z,15.80
2018-05-23T17:21:51.255Z,15.70
2018-05-23T17:24:18.754Z,15.70
2018-05-23T17:26:46.261Z,15.60
2018-05-23T17:29:13.805Z,15.60
2018-05-23T17:31:41.330Z,15.50
2018-05-23T17:34:08.801Z,15.50
2018-05-23T17:36:36.371Z,15.50
2018-05-23T17:39:04.659Z,15.40
2018-05-23T17:41:33.634Z,15.50
2018-05-23T17:44:01.163Z,15.50
2018-05-23T17:46:28.682Z,15.40
2018-05-23T17:48:56.823Z,15.50
2018-05-23T17:51:24.340Z,15.40
2018-05-23T17:53:51.847Z,15.40
2018-05-23T17:56:19.366Z,15.50
2018-05-23T17:58:46.874Z,15.50
2018-05-23T18:01:14.410Z,15.50
2018-05-23T18:03:42.729Z,15.50
2018-05-23T18:06:10.248Z,15.50
2018-05-23T18:08:37.710Z,15.50
2018-05-23T18:11:05.220Z,15.60
2018-05-23T18:13:32.704Z,15.60
2018-05-23T18:16:00.193Z,15.60
2018-05-23T18:18:28.639Z,15.50
2018-05-23T18:20:56.139Z,15.50
2018-05-23T18:23:23.773Z,15.50
2018-05-23T18:25:51.187Z,15.50
2018-05-23T18:28:18.671Z,15.50
2018-05-23T18:30:46.193Z,15.50
2018-05-23T18:33:13.674Z,15.50
2018-05-23T18:35:41.164Z,15.50
2018-05-23T18:38:08.638Z,15.60
2018-05-23T18:40:36.128Z,15.60
2018-05-23T18:43:03.645Z,15.50
2018-05-23T18:45:31.928Z,15.60
2018-05-23T18:47:59.435Z,15.60
2018-05-23T18:50:26.906Z,15.50
2018-05-23T18:52:54.386Z,15.50
2018-05-23T18:55:22.638Z,15.40
2018-05-23T18:57:50.134Z,15.40
2018-05-23T19:00:17.644Z,15.40
2018-05-23T19:02:45.154Z,15.50
2018-05-23T19:05:12.690Z,15.40
2018-05-23T19:07:40.144Z,15.30
2018-05-23T19:10:07.631Z,15.30
2018-05-23T19:12:35.124Z,15.30
2018-05-23T19:15:02.601Z,15.20
2018-05-23T19:17:30.891Z,15.10
2018-05-23T19:19:58.517Z,15.20
2018-05-23T19:22:25.920Z,15.10
2018-05-23T19:24:54.261Z,15.10
2018-05-23T19:27:22.100Z,15.10
2018-05-23T19:29:49.598Z,15.10
2018-05-23T19:32:17.918Z,15.00
2018-05-23T19:34:45.419Z,15.10
2018-05-23T19:37:12.954Z,15.10
2018-05-23T19:39:40.516Z,15.00
2018-05-23T19:42:07.983Z,15.10
2018-05-23T19:44:35.534Z,15.10
2018-05-23T19:47:03.027Z,15.10
2018-05-23T19:49:30.571Z,15.10
2018-05-23T19:51:58.065Z,15.10
2018-05-23T19:54:25.549Z,15.00
2018-05-23T19:56:53.087Z,15.00
2018-05-23T19:59:21.355Z,15.00
2018-05-23T20:01:49.650Z,14.80
2018-05-23T20:04:17.187Z,14.80
2018-05-23T20:06:45.490Z,14.80
2018-05-23T20:09:13.041Z,14.70
2018-05-23T20:11:40.525Z,14.80
2018-05-23T20:14:08.312Z,14.80
2018-05-23T20:16:35.646Z,14.70
2018-05-23T20:19:03.186Z,14.80
2018-05-23T20:21:30.645Z,14.80
2018-05-23T20:23:58.232Z,14.80
2018-05-23T20:26:25.661Z,14.80
2018-05-23T20:28:53.133Z,14.80
2018-05-23T20:31:20.649Z,14.70
2018-05-23T20:33:48.158Z,14.70
2018-05-23T20:36:16.426Z,14.60
2018-05-23T20:38:43.928Z,14.60
2018-05-23T20:41:11.422Z,14.60
2018-05-23T20:43:38.911Z,14.60
2018-05-23T20:46:06.422Z,14.50
2018-05-23T20:48:34.680Z,14.60
2018-05-23T20:51:02.214Z,14.50
2018-05-23T20:53:29.717Z,14.60
2018-05-23T20:55:57.985Z,14.60
2018-05-23T20:58:26.291Z,14.60
2018-05-23T21:00:53.763Z,14.60
2018-05-23T21:03:21.282Z,14.60
2018-05-23T21:05:48.815Z,14.60
2018-05-23T21:08:16.246Z,14.70
2018-05-23T21:10:43.733Z,14.70
2018-05-23T21:13:11.228Z,14.70
2018-05-23T21:15:38.737Z,14.80
2018-05-23T21:18:06.517Z,14.80
2018-05-23T21:20:34.097Z,14.70
2018-05-23T21:23:01.597Z,14.70
2018-05-23T21:25:29.093Z,14.70
2018-05-23T21:27:56.674Z,14.60
2018-05-23T21:30:24.855Z,14.50
2018-05-23T21:32:52.348Z,14.60
2018-05-23T21:35:19.864Z,14.50
2018-05-23T21:37:47.332Z,14.50
2018-05-23T21:40:14.866Z,14.40
2018-05-23T21:42:43.125Z,14.40
2018-05-23T21:45:10.657Z,14.40
2018-05-23T21:47:38.160Z,14.40
2018-05-23T21:50:05.634Z,14.30
2018-05-23T21:52:33.154Z,14.20
2018-05-23T21:55:00.631Z,14.20
2018-05-23T21:57:28.898Z,14.20
2018-05-23T21:59:56.414Z,14.20
2018-05-23T22:02:23.883Z,14.30
2018-05-23T22:04:51.389Z,14.30
2018-05-23T22:07:18.895Z,14.30
2018-05-23T22:09:46.363Z,14.40
2018-05-23T22:12:13.878Z,14.30
2018-05-23T22:14:41.361Z,14.30
2018-05-23T22:17:08.910Z,14.30
2018-05-23T22:19:36.393Z,14.30
2018-05-23T22:22:03.867Z,14.30
2018-05-23T22:24:31.451Z,14.40
2018-05-23T22:26:58.848Z,14.30
2018-05-23T22:29:26.374Z,14.30
2018-05-23T22:31:54.641Z,14.20
2018-05-23T22:34:22.142Z,14.20
2018-05-23T22:36:49.649Z,14.20
2018-05-23T22:39:17.118Z,14.10
2018-05-23T22:41:45.386Z,14.20
2018-05-23T22:44:13.814Z,14.20
2018-05-23T22:46:41.291Z,14.20
2018-05-23T22:49:08.836Z,14.20
2018-05-23T22:51:36.342Z,14.40
2018-05-23T22:54:04.614Z,14.20
2018-05-23T22:56:32.110Z,14.20
2018-05-23T22:58:59.597Z,14.20
2018-05-23T23:01:27.090Z,14.30
2018-05-23T23:03:55.336Z,14.00
2018-05-23T23:06:22.842Z,14.10
2018-05-23T23:08:50.351Z,14.10
2018-05-23T23:11:17.854Z,14.10
2018-05-23T23:13:46.123Z,14.10
2018-05-23T23:16:14.366Z,14.10
2018-05-23T23:18:41.900Z,14.10
2018-05-23T23:21:09.364Z,14.20
2018-05-23T23:23:36.852Z,14.20
2018-05-23T23:26:04.386Z,14.20
2018-05-23T23:28:31.876Z,14.30
2018-05-23T23:30:59.367Z,14.20
2018-05-23T23:33:26.886Z,14.10
2018-05-23T23:35:54.348Z,14.20
2018-05-23T23:38:21.867Z,14.20
2018-05-23T23:40:49.369Z,14.10
2018-05-23T23:43:17.656Z,14.10
2018-05-23T23:45:45.896Z,14.10
2018-05-23T23:48:13.408Z,14.00
2018-05-23T23:50:40.901Z,14.00
2018-05-23T23:53:08.389Z,13.90
2018-05-23T23:55:35.859Z,13.90
2018-05-23T23:58:03.334Z,13.80
